createdAt,value
2022-10-22T00:01:43.715Z,98365.13
2022-10-22T00:04:48.218Z,98353.25
2022-10-22T00:07:51.959Z,98341.53
2022-10-22T00:10:55.971Z,98343.59
2022-10-22T00:14:01.456Z,98356.16
2022-10-22T00:17:08.041Z,98352.84
2022-10-22T00:20:14.753Z,98348.53
2022-10-22T00:23:18.410Z,98353.31
2022-10-22T00:26:22.382Z,98353.97
2022-10-22T00:29:27.425Z,98349.16
2022-10-22T00:32:30.817Z,98357.84
2022-10-22T00:35:53.490Z,98365.13
2022-10-22T00:38:57.025Z,98363.66
2022-10-22T00:42:03.156Z,98353.94
2022-10-22T00:45:24.779Z,98364.19
2022-10-22T00:48:31.161Z,98377.19
2022-10-22T00:51:36.046Z,98381.69
2022-10-22T00:54:40.765Z,98401.63
2022-10-22T00:57:44.702Z,98390.41
2022-10-22T01:00:50.521Z,98389.66
2022-10-22T01:03:54.943Z,98372.34
2022-10-22T01:06:59.015Z,98374.28
2022-10-22T01:10:10.416Z,98369.16
2022-10-22T01:13:33.964Z,98367.34
2022-10-22T01:16:49.947Z,98370.66
2022-10-22T01:20:06.971Z,98371.31
2022-10-22T01:23:23.479Z,98369.13
2022-10-22T01:26:37.987Z,98360.16
2022-10-22T01:29:48.756Z,98344.69
2022-10-22T01:32:55.899Z,98357.56
2022-10-22T01:36:01.052Z,98361.69
2022-10-22T01:39:06.623Z,98360.81
2022-10-22T01:42:09.996Z,98351.69
2022-10-22T01:45:16.237Z,98354.50
2022-10-22T01:48:35.172Z,98350.88
2022-10-22T01:51:53.467Z,98344.50
2022-10-22T01:55:06.126Z,98356.63
2022-10-22T01:58:21.453Z,98340.19
2022-10-22T02:01:33.527Z,98344.50
2022-10-22T02:04:44.440Z,98340.47
2022-10-22T02:07:51.982Z,98342.28
2022-10-22T02:10:58.673Z,98341.88
2022-10-22T02:14:06.437Z,98335.41
2022-10-22T02:17:17.145Z,98332.25
2022-10-22T02:20:27.217Z,98333.03
2022-10-22T02:23:31.129Z,98327.69
2022-10-22T02:26:40.541Z,98322.88
2022-10-22T02:29:51.078Z,98327.38
2022-10-22T02:33:02.867Z,98328.16
2022-10-22T02:36:09.007Z,98326.81
2022-10-22T02:39:14.229Z,98331.09
2022-10-22T02:42:18.372Z,98334.38
2022-10-22T02:45:22.566Z,98347.34
2022-10-22T02:48:28.040Z,98353.13
2022-10-22T02:51:31.880Z,98359.38
2022-10-22T02:54:35.663Z,98353.13
2022-10-22T02:57:39.334Z,98346.63
2022-10-22T03:00:43.432Z,98353.88
2022-10-22T03:03:48.381Z,98351.34
2022-10-22T03:06:51.994Z,98353.88
2022-10-22T03:09:55.597Z,98348.97
2022-10-22T03:12:59.219Z,98346.19
2022-10-22T03:16:05.720Z,98345.53
2022-10-22T03:19:10.743Z,98348.88
2022-10-22T03:22:18.625Z,98352.66
2022-10-22T03:25:25.477Z,98360.69
2022-10-22T03:28:30.907Z,98357.09
2022-10-22T03:31:34.509Z,98348.31
2022-10-22T03:34:39.314Z,98355.78
2022-10-22T03:37:43.205Z,98358.69
2022-10-22T03:40:47.487Z,98355.56
2022-10-22T03:43:53.130Z,98352.00
2022-10-22T03:46:58.787Z,98350.59
2022-10-22T03:50:09.331Z,98359.50
2022-10-22T03:53:13.045Z,98354.41
2022-10-22T03:56:16.737Z,98357.69
2022-10-22T03:59:20.161Z,98359.47
2022-10-22T04:02:23.852Z,98358.75
2022-10-22T04:05:28.655Z,98358.81
2022-10-22T04:08:32.738Z,98354.19
2022-10-22T04:11:36.110Z,98350.97
2022-10-22T04:14:39.649Z,98350.78
2022-10-22T04:17:44.126Z,98356.03
2022-10-22T04:20:50.987Z,98358.09
2022-10-22T04:23:54.800Z,98351.69
2022-10-22T04:27:00.691Z,98345.41
2022-10-22T04:30:05.374Z,98353.16
2022-10-22T04:33:08.996Z,98369.69
2022-10-22T04:36:17.108Z,98370.69
2022-10-22T04:39:20.749Z,98362.78
2022-10-22T04:42:24.153Z,98355.81
2022-10-22T04:45:27.856Z,98355.69
2022-10-22T04:48:31.240Z,98348.38
2022-10-22T04:51:37.291Z,98347.34
2022-10-22T04:54:40.783Z,98349.88
2022-10-22T04:57:44.385Z,98355.19
2022-10-22T05:00:47.936Z,98345.81
2022-10-22T05:03:53.122Z,98335.28
2022-10-22T05:06:58.048Z,98331.72
2022-10-22T05:10:02.349Z,98322.69
2022-10-22T05:13:05.746Z,98323.28
2022-10-22T05:16:09.852Z,98315.78
2022-10-22T05:19:17.373Z,98315.34
2022-10-22T05:22:22.334Z,98315.06
2022-10-22T05:25:25.789Z,98321.09
2022-10-22T05:28:29.380Z,98324.91
2022-10-22T05:31:32.727Z,98325.41
2022-10-22T05:34:37.221Z,98324.44
2022-10-22T05:37:42.490Z,98322.25
2022-10-22T05:40:46.872Z,98323.16
2022-10-22T05:43:50.773Z,98325.75
2022-10-22T05:46:54.340Z,98326.53
2022-10-22T05:49:58.290Z,98327.94
2022-10-22T05:53:03.244Z,98334.56
2022-10-22T05:56:08.883Z,98343.00
2022-10-22T05:59:13.062Z,98337.81
2022-10-22T06:02:16.521Z,98337.75
2022-10-22T06:05:20.164Z,98337.34
2022-10-22T06:08:24.908Z,98333.09
2022-10-22T06:11:31.123Z,98334.56
2022-10-22T06:14:38.156Z,98329.00
2022-10-22T06:17:41.801Z,98323.47
2022-10-22T06:20:45.575Z,98333.16
2022-10-22T06:23:50.547Z,98322.47
2022-10-22T06:26:54.089Z,98325.69
2022-10-22T06:29:57.822Z,98338.44
2022-10-22T06:33:01.225Z,98347.50
2022-10-22T06:36:08.677Z,98349.69
2022-10-22T06:39:14.519Z,98351.75
2022-10-22T06:42:18.204Z,98361.66
2022-10-22T06:45:24.594Z,98360.72
2022-10-22T06:48:28.367Z,98363.22
2022-10-22T06:51:31.720Z,98357.19
2022-10-22T06:54:36.938Z,98362.97
2022-10-22T06:57:40.492Z,98369.34
2022-10-22T07:00:44.211Z,98365.13
2022-10-22T07:03:47.931Z,98363.38
2022-10-22T07:06:51.534Z,98359.94
2022-10-22T07:09:56.446Z,98359.34
2022-10-22T07:13:00.291Z,98364.31
2022-10-22T07:16:04.163Z,98364.13
2022-10-22T07:19:07.765Z,98354.31
2022-10-22T07:22:11.258Z,98366.13
2022-10-22T07:25:16.401Z,98375.88
2022-10-22T07:28:20.391Z,98362.34
2022-10-22T07:31:24.476Z,98372.25
2022-10-22T07:34:29.419Z,98375.19
2022-10-22T07:37:35.011Z,98376.41
2022-10-22T07:40:40.083Z,98361.00
2022-10-22T07:43:43.885Z,98358.84
2022-10-22T07:46:48.974Z,98351.81
2022-10-22T07:49:52.841Z,98360.34
2022-10-22T07:52:58.196Z,98364.25
2022-10-22T07:56:03.938Z,98358.81
2022-10-22T07:59:07.380Z,98348.50
2022-10-22T08:02:11.384Z,98355.34
2022-10-22T08:05:14.864Z,98352.88
2022-10-22T08:08:18.528Z,98357.97
2022-10-22T08:11:23.309Z,98355.00
2022-10-22T08:14:27.147Z,98358.50
2022-10-22T08:17:33.826Z,98349.31
2022-10-22T08:20:37.570Z,98343.19
2022-10-22T08:23:42.152Z,98340.28
2022-10-22T08:26:47.242Z,98345.34
2022-10-22T08:29:51.067Z,98336.69
2022-10-22T08:32:55.367Z,98323.09
2022-10-22T08:35:58.732Z,98332.19
2022-10-22T08:39:02.883Z,98331.63
2022-10-22T08:42:39.328Z,98321.00
2022-10-22T08:45:52.775Z,98328.66
2022-10-22T08:48:59.663Z,98331.09
2022-10-22T08:52:03.900Z,98322.28
2022-10-22T08:55:14.533Z,98314.66
2022-10-22T08:58:28.432Z,98304.31
2022-10-22T09:01:39.867Z,98301.63
2022-10-22T09:05:14.520Z,98303.94
2022-10-22T09:08:20.730Z,98299.75
2022-10-22T09:11:28.091Z,98295.22
2022-10-22T09:14:33.284Z,98302.66
2022-10-22T09:17:42.365Z,98298.84
2022-10-22T09:20:54.883Z,98305.22
2022-10-22T09:24:06.026Z,98295.13
2022-10-22T09:27:14.144Z,98301.13
2022-10-22T09:30:21.679Z,98297.81
2022-10-22T09:33:27.591Z,98293.31
2022-10-22T09:36:31.799Z,98294.09
2022-10-22T09:39:38.091Z,98298.88
2022-10-22T09:42:43.790Z,98299.25
2022-10-22T09:45:56.951Z,98296.09
2022-10-22T09:49:05.825Z,98287.38
2022-10-22T09:52:35.634Z,98282.09
2022-10-22T09:55:39.877Z,98281.31
2022-10-22T09:58:44.913Z,98276.09
2022-10-22T10:02:08.421Z,98288.13
2022-10-22T10:05:28.648Z,98280.31
2022-10-22T10:08:32.576Z,98276.31
2022-10-22T10:11:44.032Z,98279.97
2022-10-22T10:14:57.286Z,98270.56
2022-10-22T10:18:12.484Z,98265.28
2022-10-22T10:21:23.536Z,98253.59
2022-10-22T10:24:41.839Z,98250.25
2022-10-22T10:27:54.619Z,98253.88
2022-10-22T10:31:07.517Z,98251.84
2022-10-22T10:34:25.803Z,98261.06
2022-10-22T10:37:33.693Z,98253.69
2022-10-22T10:40:46.684Z,98253.16
2022-10-22T10:44:17.165Z,98258.13
2022-10-22T10:47:35.587Z,98251.75
2022-10-22T10:50:51.606Z,98239.75
2022-10-22T10:54:18.030Z,98236.19
2022-10-22T10:57:32.326Z,98233.69
2022-10-22T11:00:46.285Z,98235.75
2022-10-22T11:04:15.239Z,98224.19
2022-10-22T11:07:34.922Z,98231.41
2022-10-22T11:10:46.190Z,98225.78
2022-10-22T11:13:54.366Z,98224.75
2022-10-22T11:17:04.262Z,98221.44
2022-10-22T11:20:18.959Z,98216.28
2022-10-22T11:23:31.469Z,98225.28
2022-10-22T11:26:42.098Z,98217.84
2022-10-22T11:29:50.688Z,98232.19
2022-10-22T11:32:59.932Z,98222.44
2022-10-22T11:36:07.482Z,98219.16
2022-10-22T11:39:31.364Z,98220.88
2022-10-22T11:42:37.393Z,98232.22
2022-10-22T11:45:43.267Z,98226.59
2022-10-22T11:49:03.282Z,98228.34
2022-10-22T11:52:25.148Z,98219.66
2022-10-22T11:55:46.030Z,98221.69
2022-10-22T11:58:53.745Z,98220.66
2022-10-22T12:01:58.167Z,98217.06
2022-10-22T12:05:34.676Z,98214.00
2022-10-22T12:08:44.937Z,98222.47
2022-10-22T12:11:52.834Z,98223.50
2022-10-22T12:14:59.351Z,98214.28
2022-10-22T12:18:06.610Z,98213.50
2022-10-22T12:21:14.130Z,98216.59
2022-10-22T12:24:21.310Z,98214.81
2022-10-22T12:27:28.239Z,98204.78
2022-10-22T12:30:34.779Z,98195.81
2022-10-22T12:33:40.103Z,98190.22
2022-10-22T12:36:44.830Z,98198.19
2022-10-22T12:39:48.329Z,98193.03
2022-10-22T12:42:55.354Z,98199.16
2022-10-22T12:46:01.022Z,98189.47
2022-10-22T12:49:07.465Z,98188.94
2022-10-22T12:52:16.854Z,98181.00
2022-10-22T12:55:25.836Z,98182.00
2022-10-22T12:58:37.743Z,98176.38
2022-10-22T13:01:44.137Z,98172.53
2022-10-22T13:05:17.087Z,98166.88
2022-10-22T13:11:33.353Z,98170.22
2022-10-22T13:14:39.857Z,98174.06
2022-10-22T13:17:43.946Z,98166.38
2022-10-22T13:20:55.237Z,98165.59
2022-10-22T13:24:02.161Z,98168.69
2022-10-22T13:27:05.724Z,98174.31
2022-10-22T13:30:25.631Z,98165.88
2022-10-22T13:33:34.437Z,98165.09
2022-10-22T13:36:38.053Z,98175.06
2022-10-22T13:39:41.806Z,98164.56
2022-10-22T13:42:45.460Z,98172.03
2022-10-22T13:45:55.308Z,98177.16
2022-10-22T13:48:59.973Z,98166.38
2022-10-22T13:52:03.676Z,98163.56
2022-10-22T13:55:15.973Z,98169.72
2022-10-22T13:58:21.501Z,98164.31
2022-10-22T14:01:28.477Z,98162.00
2022-10-22T14:04:32.000Z,98160.75
2022-10-22T14:07:37.252Z,98169.22
2022-10-22T14:10:40.936Z,98168.16
2022-10-22T14:13:46.934Z,98158.94
2022-10-22T14:16:54.000Z,98148.41
2022-10-22T14:19:57.392Z,98151.47
2022-10-22T14:23:06.865Z,98147.38
2022-10-22T14:26:23.918Z,98156.88
2022-10-22T14:29:29.704Z,98157.91
2022-10-22T14:32:34.683Z,98147.38
2022-10-22T14:35:38.407Z,98151.47
2022-10-22T14:38:42.166Z,98153.81
2022-10-22T14:41:46.139Z,98151.00
2022-10-22T14:44:49.416Z,98147.38
2022-10-22T14:47:55.986Z,98141.25
2022-10-22T14:50:59.398Z,98145.88
2022-10-22T14:54:03.042Z,98148.44
2022-10-22T14:57:06.895Z,98141.00
2022-10-22T15:00:13.246Z,98154.03
2022-10-22T15:03:18.030Z,98151.47
2022-10-22T15:06:23.366Z,98151.97
2022-10-22T15:09:26.685Z,98144.56
2022-10-22T15:12:31.631Z,98139.16
2022-10-22T15:15:39.664Z,98139.69
2022-10-22T15:18:45.160Z,98146.59
2022-10-22T15:21:48.484Z,98140.44
2022-10-22T15:24:53.617Z,98137.84
2022-10-22T15:28:00.780Z,98145.53
2022-10-22T15:31:09.248Z,98140.13
2022-10-22T15:34:14.370Z,98147.78
2022-10-22T15:37:17.943Z,98146.47
2022-10-22T15:40:21.669Z,98146.69
2022-10-22T15:43:25.369Z,98142.81
2022-10-22T15:46:34.547Z,98144.56
2022-10-22T15:49:42.399Z,98150.66
2022-10-22T15:52:45.884Z,98159.09
2022-10-22T15:55:50.611Z,98157.22
2022-10-22T15:58:55.139Z,98164.84
2022-10-22T16:01:58.752Z,98163.75
2022-10-22T16:05:03.556Z,98163.16
2022-10-22T16:08:07.187Z,98156.06
2022-10-22T16:11:11.122Z,98168.59
2022-10-22T16:14:19.789Z,98165.91
2022-10-22T16:17:23.583Z,98161.31
2022-10-22T16:20:28.665Z,98165.03
2022-10-22T16:23:32.038Z,98168.56
2022-10-22T16:26:37.170Z,98174.38
2022-10-22T16:29:40.624Z,98181.69
2022-10-22T16:32:44.270Z,98185.88
2022-10-22T16:35:49.898Z,98185.41
2022-10-22T16:38:53.621Z,98200.28
2022-10-22T16:41:57.075Z,98187.50
2022-10-22T16:45:00.728Z,98190.22
2022-10-22T16:48:04.182Z,98201.56
2022-10-22T16:51:11.591Z,98197.19
2022-10-22T16:54:33.621Z,98208.69
2022-10-22T16:57:37.279Z,98203.22
2022-10-22T17:00:40.851Z,98203.91
2022-10-22T17:03:44.635Z,98210.50
2022-10-22T17:06:49.427Z,98209.53
2022-10-22T17:09:53.031Z,98210.94
2022-10-22T17:12:56.514Z,98212.28
2022-10-22T17:16:03.254Z,98205.91
2022-10-22T17:19:07.288Z,98227.66
2022-10-22T17:22:14.889Z,98205.34
2022-10-22T17:25:24.011Z,98211.78
2022-10-22T17:28:28.500Z,98205.94
2022-10-22T17:31:35.494Z,98207.66
2022-10-22T17:34:40.464Z,98201.09
2022-10-22T17:37:45.295Z,98202.44
2022-10-22T17:40:49.143Z,98212.00
2022-10-22T17:43:52.754Z,98209.56
2022-10-22T17:46:56.815Z,98205.44
2022-10-22T17:50:00.372Z,98209.97
2022-10-22T17:53:05.285Z,98205.91
2022-10-22T17:56:10.242Z,98201.00
2022-10-22T17:59:15.941Z,98207.44
2022-10-22T18:02:20.043Z,98208.44
2022-10-22T18:05:25.589Z,98205.63
2022-10-22T18:08:30.361Z,98207.66
2022-10-22T18:11:34.478Z,98215.38
2022-10-22T18:14:37.990Z,98213.44
2022-10-22T18:17:41.893Z,98215.06
2022-10-22T18:20:49.894Z,98222.88
2022-10-22T18:23:54.987Z,98220.97
2022-10-22T18:26:59.080Z,98229.22
2022-10-22T18:30:02.660Z,98226.72
2022-10-22T18:33:06.997Z,98223.91
2022-10-22T18:36:13.467Z,98229.31
2022-10-22T18:39:19.494Z,98217.34
2022-10-22T18:42:24.629Z,98220.44
2022-10-22T18:45:30.037Z,98225.63
2022-10-22T18:48:33.808Z,98227.38
2022-10-22T18:51:37.721Z,98236.44
2022-10-22T18:54:42.802Z,98235.22
2022-10-22T18:57:46.317Z,98231.00
2022-10-22T19:00:50.661Z,98235.13
2022-10-22T19:03:54.031Z,98249.16
2022-10-22T19:06:58.581Z,98237.47
2022-10-22T19:10:03.756Z,98254.44
2022-10-22T19:13:07.369Z,98242.50
2022-10-22T19:16:13.754Z,98249.16
2022-10-22T19:19:19.778Z,98243.47
2022-10-22T19:22:23.265Z,98264.25
2022-10-22T19:25:28.857Z,98258.47
2022-10-22T19:28:32.531Z,98268.94
2022-10-22T19:31:36.313Z,98270.19
2022-10-22T19:34:40.408Z,98262.28
2022-10-22T19:37:48.241Z,98259.34
2022-10-22T19:40:53.365Z,98274.59
2022-10-22T19:43:59.433Z,98273.69
2022-10-22T19:47:03.145Z,98274.00
2022-10-22T19:50:07.587Z,98263.22
2022-10-22T19:53:11.181Z,98258.47
2022-10-22T19:56:18.942Z,98256.28
2022-10-22T19:59:26.227Z,98266.38
2022-10-22T20:02:32.317Z,98259.06
2022-10-22T20:05:39.607Z,98263.59
2022-10-22T20:08:43.290Z,98261.56
2022-10-22T20:11:48.051Z,98265.50
2022-10-22T20:14:51.657Z,98259.81
2022-10-22T20:17:55.098Z,98273.66
2022-10-22T20:20:58.783Z,98284.06
2022-10-22T20:24:02.632Z,98285.06
2022-10-22T20:27:07.707Z,98287.38
2022-10-22T20:30:12.039Z,98293.34
2022-10-22T20:33:16.370Z,98300.16
2022-10-22T20:36:22.026Z,98300.84
2022-10-22T20:39:25.719Z,98311.34
2022-10-22T20:42:30.525Z,98319.59
2022-10-22T20:45:36.251Z,98316.03
2022-10-22T20:48:39.737Z,98331.22
2022-10-22T20:51:43.586Z,98385.06
2022-10-22T20:55:06.195Z,98387.84
2022-10-22T20:58:11.533Z,98427.13
2022-10-22T21:01:20.516Z,98435.84
2022-10-22T21:04:24.190Z,98459.72
2022-10-22T21:07:27.960Z,98498.53
2022-10-22T21:10:32.645Z,98501.06
2022-10-22T21:13:37.615Z,98508.13
2022-10-22T21:16:42.157Z,98512.09
2022-10-22T21:19:45.470Z,98533.50
2022-10-22T21:22:49.513Z,98534.38
2022-10-22T21:25:57.094Z,98535.91
2022-10-22T21:29:02.248Z,98539.47
2022-10-22T21:32:05.840Z,98547.06
2022-10-22T21:35:10.013Z,98553.25
2022-10-22T21:38:13.536Z,98565.88
2022-10-22T21:41:18.878Z,98560.31
2022-10-22T21:44:23.660Z,98557.97
2022-10-22T21:47:27.303Z,98548.38
2022-10-22T21:50:31.207Z,98542.59
2022-10-22T21:53:34.808Z,98537.97
2022-10-22T21:56:38.193Z,98549.16
2022-10-22T21:59:43.714Z,98541.50
2022-10-22T22:02:47.173Z,98538.25
2022-10-22T22:05:52.281Z,98542.72
2022-10-22T22:08:56.705Z,98534.81
2022-10-22T22:12:00.420Z,98531.75
2022-10-22T22:15:06.130Z,98533.28
2022-10-22T22:18:09.739Z,98527.78
2022-10-22T22:21:14.566Z,98527.38
2022-10-22T22:24:18.089Z,98536.81
2022-10-22T22:27:21.381Z,98534.97
2022-10-22T22:30:26.412Z,98541.00
2022-10-22T22:33:30.124Z,98544.19
2022-10-22T22:36:36.025Z,98552.13
2022-10-22T22:39:39.409Z,98545.84
2022-10-22T22:42:42.992Z,98562.50
2022-10-22T22:45:47.719Z,98558.53
2022-10-22T22:48:51.968Z,98564.25
2022-10-22T22:51:55.503Z,98550.50
2022-10-22T22:54:59.173Z,98575.28
2022-10-22T22:58:02.517Z,98574.81
2022-10-22T23:01:14.119Z,98580.41
2022-10-22T23:04:22.839Z,98575.59
2022-10-22T23:07:26.544Z,98583.72
2022-10-22T23:10:29.935Z,98585.72
2022-10-22T23:13:33.617Z,98591.66
2022-10-22T23:16:41.378Z,98578.28
2022-10-22T23:19:44.950Z,98580.78
2022-10-22T23:22:48.768Z,98587.38
2022-10-22T23:25:55.972Z,98595.81
2022-10-22T23:29:02.189Z,98584.09
2022-10-22T23:32:13.225Z,98593.84
2022-10-22T23:35:17.067Z,98589.47
2022-10-22T23:38:23.600Z,98605.16
2022-10-22T23:41:26.921Z,98600.94
2022-10-22T23:44:30.495Z,98607.31
2022-10-22T23:47:35.879Z,98605.56
2022-10-22T23:50:39.610Z,98610.59
2022-10-22T23:53:44.345Z,98615.25
2022-10-22T23:56:50.610Z,98616.78
2022-10-22T23:59:54.658Z,98628.63
